createdAt,value
2018-06-21T00:00:25.163Z,17.97
2018-06-21T00:01:25.113Z,17.93
2018-06-21T00:02:25.056Z,17.99
2018-06-21T00:03:25.032Z,17.87
2018-06-21T00:04:25.074Z,17.86
2018-06-21T00:05:24.968Z,17.96
2018-06-21T00:06:24.950Z,17.92
2018-06-21T00:07:24.884Z,17.92
2018-06-21T00:08:24.853Z,17.87
2018-06-21T00:09:24.810Z,17.86
2018-06-21T00:10:24.754Z,17.81
2018-06-21T00:11:24.795Z,17.77
2018-06-21T00:12:24.700Z,17.74
2018-06-21T00:13:33.024Z,17.77
2018-06-21T00:14:24.595Z,17.72
2018-06-21T00:15:24.579Z,17.70
2018-06-21T00:16:24.629Z,17.68
2018-06-21T00:17:24.539Z,17.64
2018-06-21T00:18:24.568Z,17.62
2018-06-21T00:19:24.428Z,17.64
2018-06-21T00:20:24.407Z,17.62
2018-06-21T00:21:24.382Z,17.59
2018-06-21T00:22:24.324Z,17.48
2018-06-21T00:23:24.289Z,17.41
2018-06-21T00:24:24.308Z,17.52
2018-06-21T00:25:24.207Z,17.38
2018-06-21T00:26:24.235Z,17.44
2018-06-21T00:27:24.167Z,17.43
2018-06-21T00:28:24.080Z,17.30
2018-06-21T00:29:24.200Z,17.31
2018-06-21T00:30:24.025Z,17.33
2018-06-21T00:31:23.987Z,17.25
2018-06-21T00:32:23.997Z,17.37
2018-06-21T00:33:23.911Z,17.30
2018-06-21T00:34:23.870Z,17.33
2018-06-21T00:35:23.829Z,17.18
2018-06-21T00:36:23.811Z,17.21
2018-06-21T00:37:23.860Z,17.15
2018-06-21T00:38:23.743Z,17.14
2018-06-21T00:39:23.720Z,17.21
2018-06-21T00:40:23.692Z,17.18
2018-06-21T00:41:23.605Z,17.18
2018-06-21T00:42:23.588Z,17.16
2018-06-21T00:43:23.561Z,17.18
2018-06-21T00:44:23.501Z,17.18
2018-06-21T00:45:23.474Z,17.23
2018-06-21T00:46:23.427Z,17.19
2018-06-21T00:47:23.392Z,17.16
2018-06-21T00:48:23.369Z,17.15
2018-06-21T00:49:23.325Z,17.21
2018-06-21T00:50:23.326Z,17.15
2018-06-21T00:51:23.242Z,17.11
2018-06-21T00:52:23.186Z,17.11
2018-06-21T00:53:23.188Z,17.14
2018-06-21T00:54:23.129Z,17.04
2018-06-21T00:55:23.115Z,17.11
2018-06-21T00:56:23.061Z,17.04
2018-06-21T00:57:23.110Z,17.04
2018-06-21T00:58:22.971Z,16.96
2018-06-21T00:59:22.964Z,17.00
2018-06-21T01:00:22.900Z,16.98
2018-06-21T01:01:33.356Z,16.98
2018-06-21T01:02:22.867Z,16.91
2018-06-21T01:03:22.897Z,16.93
2018-06-21T01:04:22.767Z,16.91
2018-06-21T01:05:22.715Z,16.88
2018-06-21T01:06:22.725Z,16.88
2018-06-21T01:07:22.687Z,16.81
2018-06-21T01:08:22.609Z,16.79
2018-06-21T01:09:22.617Z,16.75
2018-06-21T01:10:22.539Z,16.71
2018-06-21T01:11:22.503Z,16.70
2018-06-21T01:12:22.455Z,16.78
2018-06-21T01:13:22.440Z,16.70
2018-06-21T01:14:22.451Z,16.68
2018-06-21T01:15:22.374Z,16.66
2018-06-21T01:16:22.343Z,16.64
2018-06-21T01:17:22.266Z,16.60
2018-06-21T01:18:22.212Z,16.66
2018-06-21T01:19:22.179Z,16.64
2018-06-21T01:20:22.227Z,16.57
2018-06-21T01:21:22.143Z,16.52
2018-06-21T01:22:22.110Z,16.57
2018-06-21T01:23:22.032Z,16.48
2018-06-21T01:24:22.003Z,16.49
2018-06-21T01:25:33.251Z,16.49
2018-06-21T01:26:21.995Z,16.46
2018-06-21T01:27:21.990Z,16.57
2018-06-21T01:28:21.981Z,16.43
2018-06-21T01:29:21.855Z,16.43
2018-06-21T01:30:21.763Z,16.53
2018-06-21T01:31:21.784Z,16.52
2018-06-21T01:32:21.703Z,16.48
2018-06-21T01:33:21.654Z,16.42
2018-06-21T01:34:21.633Z,16.30
2018-06-21T01:35:21.575Z,16.38
2018-06-21T01:36:21.614Z,16.33
2018-06-21T01:37:21.516Z,16.31
2018-06-21T01:38:21.460Z,16.38
2018-06-21T01:39:21.425Z,16.41
2018-06-21T01:40:21.385Z,16.31
2018-06-21T01:41:21.449Z,16.24
2018-06-21T01:42:21.330Z,16.24
2018-06-21T01:43:21.292Z,16.21
2018-06-21T01:44:21.293Z,16.23
2018-06-21T01:45:21.239Z,16.23
2018-06-21T01:46:21.159Z,16.34
2018-06-21T01:47:21.154Z,16.28
2018-06-21T01:48:21.176Z,16.17
2018-06-21T01:49:21.062Z,16.23
2018-06-21T01:50:21.025Z,16.15
2018-06-21T01:51:20.980Z,16.21
2018-06-21T01:52:20.975Z,16.20
2018-06-21T01:53:20.925Z,16.20
2018-06-21T01:54:20.890Z,16.14
2018-06-21T01:55:21.791Z,16.04
2018-06-21T01:56:20.839Z,16.12
2018-06-21T01:57:20.846Z,16.07
2018-06-21T01:58:20.714Z,16.09
2018-06-21T01:59:20.685Z,16.09
2018-06-21T02:00:20.664Z,16.12
2018-06-21T02:01:20.594Z,16.05
2018-06-21T02:02:20.719Z,16.01
2018-06-21T02:03:20.571Z,15.97
2018-06-21T02:04:20.489Z,16.00
2018-06-21T02:05:20.512Z,15.93
2018-06-21T02:06:20.439Z,15.89
2018-06-21T02:07:20.458Z,15.92
2018-06-21T02:08:20.374Z,15.94
2018-06-21T02:09:20.317Z,15.92
2018-06-21T02:10:20.267Z,15.86
2018-06-21T02:11:20.204Z,15.90
2018-06-21T02:12:20.237Z,15.86
2018-06-21T02:13:20.220Z,15.84
2018-06-21T02:14:20.130Z,15.83
2018-06-21T02:15:20.066Z,15.78
2018-06-21T02:16:20.071Z,15.83
2018-06-21T02:17:20.021Z,15.84
2018-06-21T02:18:20.048Z,15.78
2018-06-21T02:19:19.930Z,15.87
2018-06-21T02:20:19.884Z,15.76
2018-06-21T02:21:19.912Z,15.80
2018-06-21T02:22:19.806Z,15.86
2018-06-21T02:23:19.824Z,15.86
2018-06-21T02:24:19.753Z,15.83
2018-06-21T02:25:19.716Z,15.72
2018-06-21T02:26:19.657Z,15.83
2018-06-21T02:27:19.620Z,15.83
2018-06-21T02:28:19.582Z,15.71
2018-06-21T02:29:19.584Z,15.80
2018-06-21T02:30:19.493Z,15.76
2018-06-21T02:31:19.517Z,15.83
2018-06-21T02:32:19.444Z,15.74
2018-06-21T02:33:19.485Z,15.78
2018-06-21T02:34:19.412Z,15.76
2018-06-21T02:35:19.302Z,15.82
2018-06-21T02:36:19.272Z,15.84
2018-06-21T02:37:29.771Z,15.80
2018-06-21T02:38:19.200Z,15.76
2018-06-21T02:39:19.152Z,15.76
2018-06-21T02:40:19.152Z,15.87
2018-06-21T02:41:19.155Z,15.76
2018-06-21T02:42:19.041Z,15.76
2018-06-21T02:43:19.011Z,15.87
2018-06-21T02:44:19.018Z,15.78
2018-06-21T02:45:19.006Z,15.76
2018-06-21T02:46:18.918Z,15.74
2018-06-21T02:47:18.859Z,15.75
2018-06-21T02:48:18.804Z,15.89
2018-06-21T02:49:18.781Z,15.84
2018-06-21T02:50:18.764Z,15.74
2018-06-21T02:51:18.708Z,15.84
2018-06-21T02:52:18.663Z,15.76
2018-06-21T02:53:18.712Z,15.82
2018-06-21T02:54:18.591Z,15.87
2018-06-21T02:55:18.621Z,15.76
2018-06-21T02:56:18.540Z,15.74
2018-06-21T02:57:18.476Z,15.71
2018-06-21T02:58:18.525Z,15.68
2018-06-21T02:59:18.397Z,15.69
2018-06-21T03:00:18.379Z,15.84
2018-06-21T03:01:28.213Z,15.80
2018-06-21T03:02:18.369Z,15.75
2018-06-21T03:03:18.257Z,15.90
2018-06-21T03:04:18.217Z,15.90
2018-06-21T03:05:18.156Z,16.02
2018-06-21T03:06:18.143Z,16.04
2018-06-21T03:07:18.098Z,16.04
2018-06-21T03:08:18.089Z,16.00
2018-06-21T03:09:18.022Z,15.96
2018-06-21T03:10:18.060Z,15.96
2018-06-21T03:11:17.960Z,16.08
2018-06-21T03:12:17.960Z,16.08
2018-06-21T03:13:17.933Z,16.02
2018-06-21T03:14:17.839Z,15.92
2018-06-21T03:15:17.796Z,16.08
2018-06-21T03:16:17.793Z,15.93
2018-06-21T03:17:17.722Z,16.02
2018-06-21T03:18:17.715Z,16.00
2018-06-21T03:19:17.633Z,16.05
2018-06-21T03:20:17.606Z,16.12
2018-06-21T03:21:17.591Z,16.12
2018-06-21T03:22:17.549Z,16.21
2018-06-21T03:23:17.531Z,16.27
2018-06-21T03:24:28.178Z,16.28
2018-06-21T03:25:17.394Z,16.35
2018-06-21T03:26:17.462Z,16.46
2018-06-21T03:27:17.369Z,16.45
2018-06-21T03:28:17.307Z,16.53
2018-06-21T03:29:17.269Z,16.67
2018-06-21T03:30:17.216Z,16.68
2018-06-21T03:31:17.177Z,16.70
2018-06-21T03:32:17.148Z,16.78
2018-06-21T03:33:17.136Z,16.81
2018-06-21T03:34:17.100Z,16.93
2018-06-21T03:35:17.031Z,16.97
2018-06-21T03:36:17.025Z,17.04
2018-06-21T03:37:17.022Z,17.03
2018-06-21T03:38:16.936Z,17.03
2018-06-21T03:39:16.889Z,17.11
2018-06-21T03:40:16.921Z,17.21
2018-06-21T03:41:16.797Z,17.22
2018-06-21T03:42:16.756Z,17.31
2018-06-21T03:43:16.762Z,17.31
2018-06-21T03:44:16.707Z,17.34
2018-06-21T03:45:16.716Z,17.30
2018-06-21T03:46:16.620Z,17.28
2018-06-21T03:47:16.591Z,17.43
2018-06-21T03:48:16.565Z,17.46
2018-06-21T03:49:16.501Z,17.48
2018-06-21T03:50:16.462Z,17.54
2018-06-21T03:51:16.417Z,17.54
2018-06-21T03:52:16.464Z,17.58
2018-06-21T03:53:16.357Z,17.58
2018-06-21T03:54:16.347Z,17.59
2018-06-21T03:55:16.276Z,17.66
2018-06-21T03:56:16.240Z,17.58
2018-06-21T03:57:16.248Z,17.68
2018-06-21T03:58:16.182Z,17.71
2018-06-21T03:59:16.193Z,17.75
2018-06-21T04:00:16.139Z,17.77
2018-06-21T04:01:16.062Z,17.81
2018-06-21T04:02:16.009Z,17.81
2018-06-21T04:03:16.002Z,17.82
2018-06-21T04:04:15.961Z,17.90
2018-06-21T04:05:15.924Z,17.87
2018-06-21T04:06:15.862Z,17.89
2018-06-21T04:07:15.844Z,18.00
2018-06-21T04:08:15.786Z,18.07
2018-06-21T04:09:15.748Z,18.10
2018-06-21T04:10:15.760Z,18.11
2018-06-21T04:11:15.780Z,18.23
2018-06-21T04:12:28.090Z,18.21
2018-06-21T04:13:15.601Z,18.30
2018-06-21T04:14:15.552Z,18.30
2018-06-21T04:15:15.550Z,18.35
2018-06-21T04:16:15.500Z,18.35
2018-06-21T04:17:15.709Z,18.30
2018-06-21T04:18:15.426Z,18.37
2018-06-21T04:19:15.365Z,18.41
2018-06-21T04:20:15.373Z,18.51
2018-06-21T04:21:15.298Z,18.52
2018-06-21T04:22:15.327Z,18.54
2018-06-21T04:23:15.236Z,18.60
2018-06-21T04:24:15.193Z,18.52
2018-06-21T04:25:15.176Z,18.48
2018-06-21T04:26:15.125Z,18.62
2018-06-21T04:27:15.095Z,18.57
2018-06-21T04:28:15.090Z,18.60
2018-06-21T04:29:15.000Z,18.63
2018-06-21T04:30:15.074Z,18.72
2018-06-21T04:31:14.976Z,18.73
2018-06-21T04:32:14.963Z,18.76
2018-06-21T04:33:14.899Z,18.75
2018-06-21T04:34:14.830Z,18.73
2018-06-21T04:35:14.780Z,18.69
2018-06-21T04:36:22.492Z,18.72
2018-06-21T04:37:14.701Z,18.70
2018-06-21T04:38:14.897Z,18.73
2018-06-21T04:39:14.637Z,18.76
2018-06-21T04:40:14.691Z,18.87
2018-06-21T04:41:14.596Z,18.80
2018-06-21T04:42:14.573Z,18.78
2018-06-21T04:43:14.495Z,18.78
2018-06-21T04:44:14.456Z,18.76
2018-06-21T04:45:14.418Z,18.78
2018-06-21T04:46:14.408Z,18.84
2018-06-21T04:47:14.378Z,18.84
2018-06-21T04:48:14.308Z,18.87
2018-06-21T04:49:14.329Z,18.85
2018-06-21T04:50:14.222Z,18.95
2018-06-21T04:51:14.198Z,18.99
2018-06-21T04:52:14.223Z,19.00
2018-06-21T04:53:14.131Z,18.94
2018-06-21T04:54:14.096Z,18.98
2018-06-21T04:55:14.082Z,18.94
2018-06-21T04:56:14.100Z,18.91
2018-06-21T04:57:14.009Z,18.90
2018-06-21T04:58:13.929Z,18.98
2018-06-21T04:59:13.900Z,18.84
2018-06-21T05:00:22.158Z,18.84
2018-06-21T05:01:13.909Z,18.90
2018-06-21T05:02:13.798Z,18.87
2018-06-21T05:03:13.781Z,18.88
2018-06-21T05:04:13.732Z,18.78
2018-06-21T05:05:13.708Z,18.80
2018-06-21T05:06:13.691Z,18.76
2018-06-21T05:07:13.612Z,18.82
2018-06-21T05:08:13.647Z,18.78
2018-06-21T05:09:13.541Z,18.81
2018-06-21T05:10:13.494Z,18.73
2018-06-21T05:11:13.459Z,18.70
2018-06-21T05:12:13.495Z,18.69
2018-06-21T05:13:13.390Z,18.70
2018-06-21T05:14:13.435Z,18.67
2018-06-21T05:15:13.315Z,18.67
2018-06-21T05:16:13.297Z,18.63
2018-06-21T05:17:13.283Z,18.65
2018-06-21T05:18:13.315Z,18.55
2018-06-21T05:19:13.210Z,18.57
2018-06-21T05:20:13.141Z,18.55
2018-06-21T05:21:13.124Z,18.54
2018-06-21T05:22:13.051Z,18.48
2018-06-21T05:23:13.045Z,18.52
2018-06-21T05:24:23.657Z,18.55
2018-06-21T05:25:13.003Z,18.48
2018-06-21T05:26:12.992Z,18.47
2018-06-21T05:27:12.907Z,18.48
2018-06-21T05:28:12.813Z,18.51
2018-06-21T05:29:12.779Z,18.42
2018-06-21T05:30:12.790Z,18.39
2018-06-21T05:31:12.743Z,18.41
2018-06-21T05:32:12.686Z,18.47
2018-06-21T05:33:12.662Z,18.39
2018-06-21T05:34:12.652Z,18.42
2018-06-21T05:35:12.562Z,18.36
2018-06-21T05:36:12.533Z,18.37
2018-06-21T05:37:12.488Z,18.41
2018-06-21T05:38:12.496Z,18.36
2018-06-21T05:39:12.448Z,18.37
2018-06-21T05:40:12.368Z,18.30
2018-06-21T05:41:12.338Z,18.36
2018-06-21T05:42:12.305Z,18.27
2018-06-21T05:43:12.268Z,18.26
2018-06-21T05:44:12.274Z,18.25
2018-06-21T05:45:12.207Z,18.23
2018-06-21T05:46:12.168Z,18.21
2018-06-21T05:47:12.130Z,18.15
2018-06-21T05:48:22.169Z,18.23
2018-06-21T05:49:12.174Z,18.29
2018-06-21T05:50:12.042Z,18.26
2018-06-21T05:51:11.969Z,18.15
2018-06-21T05:52:12.451Z,18.15
2018-06-21T05:53:11.882Z,18.25
2018-06-21T05:54:11.869Z,18.18
2018-06-21T05:55:11.861Z,18.17
2018-06-21T05:56:11.784Z,18.15
2018-06-21T05:57:11.740Z,18.08
2018-06-21T05:58:11.724Z,18.00
2018-06-21T05:59:11.718Z,18.03
2018-06-21T06:00:11.648Z,17.99
2018-06-21T06:01:11.644Z,17.97
2018-06-21T06:02:11.576Z,18.03
2018-06-21T06:03:11.545Z,17.90
2018-06-21T06:04:11.487Z,17.90
2018-06-21T06:05:11.455Z,17.96
2018-06-21T06:06:11.431Z,17.79
2018-06-21T06:07:11.376Z,17.84
2018-06-21T06:08:11.398Z,17.78
2018-06-21T06:09:11.334Z,17.77
2018-06-21T06:10:11.335Z,17.77
2018-06-21T06:11:11.241Z,17.72
2018-06-21T06:12:11.196Z,17.75
2018-06-21T06:13:11.163Z,17.70
2018-06-21T06:14:11.195Z,17.70
2018-06-21T06:15:11.090Z,17.72
2018-06-21T06:16:11.060Z,17.72
2018-06-21T06:17:10.995Z,17.79
2018-06-21T06:18:10.971Z,17.74
2018-06-21T06:19:10.922Z,17.70
2018-06-21T06:20:10.889Z,17.79
2018-06-21T06:21:10.836Z,17.81
2018-06-21T06:22:10.833Z,17.92
2018-06-21T06:23:10.801Z,17.89
2018-06-21T06:24:10.748Z,17.90
2018-06-21T06:25:10.707Z,17.93
2018-06-21T06:26:10.665Z,17.99
2018-06-21T06:27:10.653Z,17.93
2018-06-21T06:28:10.592Z,17.96
2018-06-21T06:29:10.563Z,17.93
2018-06-21T06:30:10.534Z,17.93
2018-06-21T06:31:10.473Z,17.92
2018-06-21T06:32:10.457Z,17.93
2018-06-21T06:33:10.415Z,17.89
2018-06-21T06:34:10.393Z,17.92
2018-06-21T06:35:10.336Z,17.95
2018-06-21T06:36:10.290Z,17.87
2018-06-21T06:37:20.223Z,17.86
2018-06-21T06:38:10.202Z,17.79
2018-06-21T06:39:10.180Z,17.89
2018-06-21T06:40:10.265Z,17.99
2018-06-21T06:41:10.142Z,18.08
2018-06-21T06:42:10.103Z,18.07
2018-06-21T06:43:10.036Z,18.23
2018-06-21T06:44:09.994Z,18.27
2018-06-21T06:45:09.957Z,18.25
2018-06-21T06:46:09.957Z,18.33
2018-06-21T06:47:09.886Z,18.36
2018-06-21T06:48:09.858Z,18.42
2018-06-21T06:49:09.808Z,18.50
2018-06-21T06:50:09.774Z,18.58
2018-06-21T06:51:09.734Z,18.73
2018-06-21T06:52:09.694Z,18.94
2018-06-21T06:53:09.664Z,19.10
2018-06-21T06:54:09.656Z,19.28
2018-06-21T06:55:09.573Z,19.16
2018-06-21T06:56:09.548Z,19.11
2018-06-21T06:57:09.509Z,18.99
2018-06-21T06:58:09.473Z,18.98
2018-06-21T06:59:09.470Z,19.08
2018-06-21T07:00:20.769Z,19.11
2018-06-21T07:01:09.355Z,19.19
2018-06-21T07:02:09.368Z,19.10
2018-06-21T07:03:09.283Z,19.22
2018-06-21T07:04:09.312Z,19.28
2018-06-21T07:05:09.207Z,19.31
2018-06-21T07:06:09.173Z,19.36
2018-06-21T07:07:09.141Z,19.32
2018-06-21T07:08:09.148Z,19.36
2018-06-21T07:09:09.114Z,19.31
2018-06-21T07:10:09.040Z,19.43
2018-06-21T07:11:08.997Z,19.28
2018-06-21T07:12:08.953Z,19.28
2018-06-21T07:13:08.946Z,19.31
2018-06-21T07:14:08.937Z,19.14
2018-06-21T07:15:08.888Z,19.26
2018-06-21T07:16:08.815Z,19.46
2018-06-21T07:17:08.793Z,19.54
2018-06-21T07:18:08.763Z,19.63
2018-06-21T07:19:08.744Z,19.77
2018-06-21T07:20:08.719Z,19.96
2018-06-21T07:21:08.640Z,19.94
2018-06-21T07:22:08.597Z,20.16
2018-06-21T07:23:08.582Z,19.99
2018-06-21T07:24:08.539Z,20.03
2018-06-21T07:25:08.507Z,20.03
2018-06-21T07:26:08.452Z,20.02
2018-06-21T07:27:08.469Z,20.05
2018-06-21T07:28:08.384Z,20.18
2018-06-21T07:29:08.353Z,20.13
2018-06-21T07:30:08.382Z,20.17
2018-06-21T07:31:08.282Z,20.11
2018-06-21T07:32:08.241Z,20.20
2018-06-21T07:33:08.239Z,20.57
2018-06-21T07:34:08.214Z,20.77
2018-06-21T07:35:08.179Z,21.10
2018-06-21T07:36:08.108Z,21.17
2018-06-21T07:37:08.100Z,21.52
2018-06-21T07:38:08.033Z,21.58
2018-06-21T07:39:08.047Z,21.35
2018-06-21T07:40:07.993Z,21.46
2018-06-21T07:41:07.927Z,21.38
2018-06-21T07:42:07.891Z,21.24
2018-06-21T07:43:07.870Z,21.09
2018-06-21T07:44:07.826Z,20.84
2018-06-21T07:45:07.807Z,20.29
2018-06-21T07:46:07.787Z,19.99
2018-06-21T07:47:07.714Z,19.74
2018-06-21T07:48:07.683Z,19.69
2018-06-21T07:49:07.657Z,19.61
2018-06-21T07:50:07.648Z,19.41
2018-06-21T07:51:07.607Z,19.47
2018-06-21T07:52:07.547Z,19.26
2018-06-21T07:53:07.507Z,19.13
2018-06-21T07:54:07.478Z,19.06
2018-06-21T07:55:07.438Z,19.10
2018-06-21T07:56:07.441Z,19.00
2018-06-21T07:57:07.360Z,19.07
2018-06-21T07:58:07.337Z,19.23
2018-06-21T07:59:07.327Z,19.40
2018-06-21T08:00:07.265Z,19.51
2018-06-21T08:01:07.261Z,19.81
2018-06-21T08:02:07.181Z,20.10
2018-06-21T08:03:07.194Z,20.14
2018-06-21T08:04:07.118Z,20.11
2018-06-21T08:05:07.136Z,20.32
2018-06-21T08:06:07.079Z,20.42
2018-06-21T08:07:07.060Z,20.29
2018-06-21T08:08:06.990Z,20.31
2018-06-21T08:09:06.939Z,20.33
2018-06-21T08:10:06.917Z,20.41
2018-06-21T08:11:06.883Z,20.14
2018-06-21T08:12:16.984Z,20.29
2018-06-21T08:13:06.794Z,20.31
2018-06-21T08:14:06.793Z,20.26
2018-06-21T08:15:06.736Z,20.32
2018-06-21T08:16:06.701Z,20.06
2018-06-21T08:17:06.700Z,20.01
2018-06-21T08:18:06.652Z,19.92
2018-06-21T08:19:06.616Z,20.01
2018-06-21T08:20:06.561Z,20.02
2018-06-21T08:21:06.529Z,20.11
2018-06-21T08:22:06.496Z,20.33
2018-06-21T08:23:06.498Z,20.33
2018-06-21T08:24:06.422Z,20.29
2018-06-21T08:25:06.394Z,20.47
2018-06-21T08:26:06.352Z,20.29
2018-06-21T08:27:06.332Z,20.47
2018-06-21T08:28:06.312Z,20.51
2018-06-21T08:29:06.263Z,20.33
2018-06-21T08:30:06.215Z,20.14
2018-06-21T08:31:06.190Z,20.02
2018-06-21T08:32:06.133Z,20.17
2018-06-21T08:33:06.143Z,20.48
2018-06-21T08:34:06.079Z,20.70
2018-06-21T08:35:06.109Z,20.74
2018-06-21T08:36:16.459Z,20.64
2018-06-21T08:37:05.976Z,21.03
2018-06-21T08:38:05.971Z,21.68
2018-06-21T08:39:05.913Z,22.06
2018-06-21T08:40:05.866Z,22.55
2018-06-21T08:41:05.827Z,22.47
2018-06-21T08:42:05.810Z,22.64
2018-06-21T08:43:05.773Z,22.39
2018-06-21T08:44:05.771Z,22.65
2018-06-21T08:45:05.704Z,22.40
2018-06-21T08:46:05.751Z,22.09
2018-06-21T08:47:05.639Z,21.71
2018-06-21T08:48:05.638Z,21.58
2018-06-21T08:49:05.571Z,21.38
2018-06-21T08:50:05.540Z,21.10
2018-06-21T08:51:05.497Z,21.16
2018-06-21T08:52:05.540Z,20.98
2018-06-21T08:53:05.494Z,21.17
2018-06-21T08:54:05.429Z,21.12
2018-06-21T08:55:05.384Z,21.03
2018-06-21T08:56:05.335Z,20.97
2018-06-21T08:57:05.302Z,21.12
2018-06-21T08:58:05.268Z,21.27
2018-06-21T08:59:05.252Z,22.14
2018-06-21T09:00:05.207Z,22.86
2018-06-21T09:01:05.165Z,23.22
2018-06-21T09:02:05.130Z,23.19
2018-06-21T09:03:05.105Z,23.22
2018-06-21T09:04:05.091Z,22.77
2018-06-21T09:05:05.040Z,22.70
2018-06-21T09:06:04.998Z,23.32
2018-06-21T09:07:05.005Z,23.60
2018-06-21T09:08:04.932Z,23.94
2018-06-21T09:09:04.957Z,23.27
2018-06-21T09:10:04.857Z,22.77
2018-06-21T09:11:04.831Z,22.51
2018-06-21T09:12:04.818Z,22.05
2018-06-21T09:13:04.791Z,22.20
2018-06-21T09:14:04.735Z,22.09
2018-06-21T09:15:04.733Z,22.20
2018-06-21T09:16:04.672Z,23.10
2018-06-21T09:17:04.653Z,23.38
2018-06-21T09:18:04.646Z,23.20
2018-06-21T09:19:04.608Z,23.02
2018-06-21T09:20:04.579Z,23.48
2018-06-21T09:21:04.574Z,23.35
2018-06-21T09:22:04.481Z,23.53
2018-06-21T09:23:04.450Z,24.09
2018-06-21T09:24:04.428Z,24.42
2018-06-21T09:25:04.432Z,24.09
2018-06-21T09:26:04.373Z,23.95
2018-06-21T09:27:04.354Z,24.37
2018-06-21T09:28:04.335Z,24.77
2018-06-21T09:29:04.265Z,24.42
2018-06-21T09:30:04.253Z,24.03
2018-06-21T09:31:04.231Z,23.61
2018-06-21T09:32:04.218Z,23.22
2018-06-21T09:33:04.248Z,23.23
2018-06-21T09:34:04.119Z,22.75
2018-06-21T09:35:04.133Z,23.07
2018-06-21T09:36:04.085Z,23.00
2018-06-21T09:37:04.005Z,23.20
2018-06-21T09:38:04.001Z,23.00
2018-06-21T09:39:04.101Z,22.91
2018-06-21T09:40:03.962Z,23.53
2018-06-21T09:41:03.936Z,22.90
2018-06-21T09:42:03.934Z,22.88
2018-06-21T09:43:03.836Z,22.82
2018-06-21T09:44:04.358Z,22.65
2018-06-21T09:45:03.781Z,22.64
2018-06-21T09:46:03.757Z,22.88
2018-06-21T09:47:03.750Z,22.98
2018-06-21T09:48:03.699Z,23.73
2018-06-21T09:49:03.647Z,24.49
2018-06-21T09:50:03.607Z,24.50
2018-06-21T09:51:03.602Z,24.78
2018-06-21T09:52:03.583Z,24.62
2018-06-21T09:53:03.519Z,24.87
2018-06-21T09:54:03.476Z,24.24
2018-06-21T09:55:03.531Z,23.98
2018-06-21T09:56:03.497Z,23.85
2018-06-21T09:57:03.420Z,24.00
2018-06-21T09:58:03.383Z,24.57
2018-06-21T09:59:03.345Z,25.06
2018-06-21T10:00:03.320Z,24.83
2018-06-21T10:01:14.401Z,24.77
2018-06-21T10:02:13.309Z,24.60
2018-06-21T10:03:03.228Z,24.40
2018-06-21T10:04:03.182Z,24.80
2018-06-21T10:05:03.215Z,24.27
2018-06-21T10:06:03.160Z,24.00
2018-06-21T10:07:03.977Z,23.93
2018-06-21T10:08:03.961Z,23.36
2018-06-21T10:09:03.422Z,22.47
2018-06-21T10:10:03.005Z,22.70
2018-06-21T10:11:02.979Z,22.95
2018-06-21T10:12:02.949Z,23.27
2018-06-21T10:13:03.017Z,23.85
2018-06-21T10:14:02.948Z,24.28
2018-06-21T10:15:02.875Z,24.67
2018-06-21T10:16:02.835Z,24.99
2018-06-21T10:17:02.858Z,25.14
2018-06-21T10:18:02.809Z,25.42
2018-06-21T10:19:02.768Z,24.81
2018-06-21T10:20:02.724Z,24.81
2018-06-21T10:21:02.701Z,24.31
2018-06-21T10:22:02.644Z,24.08
2018-06-21T10:23:02.671Z,23.65
2018-06-21T10:24:02.620Z,24.00
2018-06-21T10:25:02.570Z,23.63
2018-06-21T10:26:02.533Z,22.85
2018-06-21T10:27:02.515Z,23.17
2018-06-21T10:28:02.474Z,23.60
2018-06-21T10:29:02.482Z,23.73
2018-06-21T10:30:02.417Z,23.94
2018-06-21T10:31:02.443Z,23.95
2018-06-21T10:32:02.367Z,24.13
2018-06-21T10:33:02.334Z,24.35
2018-06-21T10:34:02.327Z,23.65
2018-06-21T10:35:02.306Z,23.09
2018-06-21T10:36:13.907Z,22.91
2018-06-21T10:37:02.230Z,23.00
2018-06-21T10:38:02.195Z,22.64
2018-06-21T10:39:02.193Z,22.18
2018-06-21T10:40:03.044Z,22.62
2018-06-21T10:41:02.226Z,22.94
2018-06-21T10:42:02.098Z,22.98
2018-06-21T10:43:02.019Z,23.19
2018-06-21T10:44:01.993Z,23.48
2018-06-21T10:45:02.313Z,23.72
2018-06-21T10:46:01.924Z,23.23
2018-06-21T10:47:01.890Z,23.32
2018-06-21T10:48:01.962Z,22.88
2018-06-21T10:49:02.159Z,22.51
2018-06-21T10:50:02.024Z,22.60
2018-06-21T10:51:01.776Z,22.60
2018-06-21T10:52:01.751Z,22.64
2018-06-21T10:53:01.718Z,22.75
2018-06-21T10:54:01.795Z,22.67
2018-06-21T10:55:01.684Z,23.02
2018-06-21T10:56:02.011Z,23.04
2018-06-21T10:57:01.621Z,23.32
2018-06-21T10:58:01.567Z,23.61
2018-06-21T10:59:01.545Z,23.43
2018-06-21T11:00:01.499Z,23.68
2018-06-21T11:01:02.071Z,24.20
2018-06-21T11:02:01.458Z,24.24
2018-06-21T11:03:01.417Z,24.00
2018-06-21T11:04:01.384Z,23.83
2018-06-21T11:05:01.346Z,23.68
2018-06-21T11:06:01.345Z,23.65
2018-06-21T11:07:01.295Z,23.63
2018-06-21T11:08:01.264Z,23.63
2018-06-21T11:09:01.257Z,23.60
2018-06-21T11:10:01.210Z,23.75
2018-06-21T11:11:01.188Z,24.03
2018-06-21T11:12:01.186Z,24.22
2018-06-21T11:13:01.190Z,23.73
2018-06-21T11:14:01.108Z,23.65
2018-06-21T11:15:01.061Z,23.69
2018-06-21T11:16:01.136Z,23.57
2018-06-21T11:17:01.030Z,23.61
2018-06-21T11:18:01.023Z,23.72
2018-06-21T11:19:00.953Z,23.83
2018-06-21T11:20:00.907Z,23.48
2018-06-21T11:21:00.905Z,23.43
2018-06-21T11:22:01.073Z,23.68
2018-06-21T11:23:00.809Z,24.15
2018-06-21T11:24:00.797Z,24.27
2018-06-21T11:25:00.781Z,24.13
2018-06-21T11:26:00.769Z,23.80
2018-06-21T11:27:00.702Z,23.79
2018-06-21T11:28:00.704Z,23.73
2018-06-21T11:29:00.648Z,23.27
2018-06-21T11:30:00.849Z,23.36
2018-06-21T11:31:00.776Z,22.76
2018-06-21T11:32:00.882Z,22.73
2018-06-21T11:33:00.516Z,22.70
2018-06-21T11:34:00.515Z,22.47
2018-06-21T11:35:00.451Z,22.14
2018-06-21T11:36:00.543Z,21.58
2018-06-21T11:37:00.408Z,21.24
2018-06-21T11:38:00.372Z,21.34
2018-06-21T11:39:00.371Z,21.21
2018-06-21T11:40:00.323Z,20.94
2018-06-21T11:41:00.555Z,20.92
2018-06-21T11:42:00.294Z,21.31
2018-06-21T11:43:00.208Z,21.34
2018-06-21T11:44:00.208Z,21.31
2018-06-21T11:45:00.325Z,21.44
2018-06-21T11:46:00.122Z,21.74
2018-06-21T11:47:00.145Z,22.09
2018-06-21T11:48:11.338Z,22.40
2018-06-21T11:49:00.369Z,22.64
2018-06-21T11:50:00.005Z,22.85
2018-06-21T11:51:00.482Z,23.22
2018-06-21T11:52:00.547Z,23.42
2018-06-21T11:52:59.923Z,23.33
2018-06-21T11:53:59.873Z,23.68
2018-06-21T11:54:59.835Z,23.87
2018-06-21T11:55:59.854Z,23.94
2018-06-21T11:56:59.780Z,24.21
2018-06-21T11:57:59.755Z,24.06
2018-06-21T11:58:59.732Z,24.18
2018-06-21T11:59:59.686Z,24.30
2018-06-21T12:00:59.657Z,24.50
2018-06-21T12:01:59.612Z,24.30
2018-06-21T12:02:59.607Z,23.84
2018-06-21T12:03:59.567Z,23.28
2018-06-21T12:04:59.532Z,23.35
2018-06-21T12:05:59.508Z,22.86
2018-06-21T12:06:59.483Z,22.51
2018-06-21T12:07:59.474Z,21.91
2018-06-21T12:09:09.052Z,21.59
2018-06-21T12:09:59.617Z,21.52
2018-06-21T12:10:59.347Z,21.46
2018-06-21T12:11:59.330Z,21.74
2018-06-21T12:13:00.115Z,22.00
2018-06-21T12:13:59.262Z,22.10
2018-06-21T12:14:59.207Z,22.27
2018-06-21T12:15:59.200Z,22.52
2018-06-21T12:16:59.178Z,22.64
2018-06-21T12:17:59.178Z,22.52
2018-06-21T12:18:59.134Z,22.47
2018-06-21T12:19:59.076Z,22.09
2018-06-21T12:20:59.047Z,22.28
2018-06-21T12:21:59.281Z,22.52
2018-06-21T12:22:58.976Z,22.64
2018-06-21T12:23:58.962Z,22.79
2018-06-21T12:24:58.918Z,23.07
2018-06-21T12:25:58.882Z,23.00
2018-06-21T12:26:58.866Z,22.97
2018-06-21T12:27:58.804Z,22.67
2018-06-21T12:28:58.773Z,22.77
2018-06-21T12:29:59.007Z,22.57
2018-06-21T12:30:58.852Z,22.52
2018-06-21T12:31:58.810Z,22.31
2018-06-21T12:32:58.654Z,22.21
2018-06-21T12:33:58.761Z,22.33
2018-06-21T12:34:58.632Z,22.51
2018-06-21T12:35:58.566Z,22.43
2018-06-21T12:36:58.537Z,22.47
2018-06-21T12:37:58.516Z,22.06
2018-06-21T12:38:58.502Z,21.65
2018-06-21T12:39:58.449Z,21.17
2018-06-21T12:40:58.416Z,21.19
2018-06-21T12:41:58.386Z,21.07
2018-06-21T12:42:58.357Z,21.10
2018-06-21T12:43:58.471Z,21.16
2018-06-21T12:44:58.327Z,21.28
2018-06-21T12:45:58.331Z,21.56
2018-06-21T12:46:58.221Z,21.71
2018-06-21T12:47:58.181Z,21.84
2018-06-21T12:48:58.168Z,21.98
2018-06-21T12:49:58.183Z,22.06
2018-06-21T12:50:58.121Z,22.24
2018-06-21T12:51:58.065Z,22.33